sensor_id;sensor_type;location;lat;lon;timestamp;temperature;humidity
20204;DHT22;10261;49.010;12.034;2023-07-13T00:00:25;20.00;99.90
20204;DHT22;10261;49.010;12.034;2023-07-13T00:01:28;20.00;99.90
20204;DHT22;10261;49.010;12.034;2023-07-13T00:02:30;20.00;99.90
20204;DHT22;10261;49.010;12.034;2023-07-13T00:03:35;20.00;99.90
20204;DHT22;10261;49.010;12.034;2023-07-13T00:04:37;20.00;99.90
20204;DHT22;10261;49.010;12.034;2023-07-13T00:05:39;20.00;99.90
20204;DHT22;10261;49.010;12.034;2023-07-13T00:06:42;20.00;99.90
20204;DHT22;10261;49.010;12.034;2023-07-13T00:07:46;20.00;99.90
20204;DHT22;10261;49.010;12.034;2023-07-13T00:08:49;20.00;99.90
20204;DHT22;10261;49.010;12.034;2023-07-13T00:09:51;20.00;99.90
20204;DHT22;10261;49.010;12.034;2023-07-13T00:10:54;20.00;99.90
20204;DHT22;10261;49.010;12.034;2023-07-13T00:11:57;20.00;99.90
20204;DHT22;10261;49.010;12.034;2023-07-13T00:13:00;19.90;99.90
20204;DHT22;10261;49.010;12.034;2023-07-13T00:14:02;20.00;99.90
20204;DHT22;10261;49.010;12.034;2023-07-13T00:15:10;20.00;99.90
20204;DHT22;10261;49.010;12.034;2023-07-13T00:16:13;20.00;99.90
20204;DHT22;10261;49.010;12.034;2023-07-13T00:17:16;20.00;99.90
20204;DHT22;10261;49.010;12.034;2023-07-13T00:18:19;20.00;99.90
20204;DHT22;10261;49.010;12.034;2023-07-13T00:19:22;20.00;99.90
20204;DHT22;10261;49.010;12.034;2023-07-13T00:20:25;20.00;99.90
20204;DHT22;10261;49.010;12.034;2023-07-13T00:21:27;20.00;99.90
20204;DHT22;10261;49.010;12.034;2023-07-13T00:22:30;20.00;99.90
20204;DHT22;10261;49.010;12.034;2023-07-13T00:23:32;19.90;99.90
20204;DHT22;10261;49.010;12.034;2023-07-13T00:24:36;20.00;99.90
20204;DHT22;10261;49.010;12.034;2023-07-13T00:25:43;20.00;99.90
20204;DHT22;10261;49.010;12.034;2023-07-13T00:26:46;20.00;99.90
20204;DHT22;10261;49.010;12.034;2023-07-13T00:27:49;20.00;99.90
20204;DHT22;10261;49.010;12.034;2023-07-13T00:28:52;19.90;99.90
20204;DHT22;10261;49.010;12.034;2023-07-13T00:29:54;19.90;99.90
20204;DHT22;10261;49.010;12.034;2023-07-13T00:30:57;20.00;99.90
20204;DHT22;10261;49.010;12.034;2023-07-13T00:31:59;20.00;99.90
20204;DHT22;10261;49.010;12.034;2023-07-13T00:33:02;19.90;99.90
20204;DHT22;10261;49.010;12.034;2023-07-13T00:34:18;20.00;99.90
20204;DHT22;10261;49.010;12.034;2023-07-13T00:35:23;19.90;99.90
20204;DHT22;10261;49.010;12.034;2023-07-13T00:36:24;20.00;99.90
20204;DHT22;10261;49.010;12.034;2023-07-13T00:37:27;20.00;99.90
20204;DHT22;10261;49.010;12.034;2023-07-13T00:38:30;20.00;99.90
20204;DHT22;10261;49.010;12.034;2023-07-13T00:39:32;19.90;99.90
20204;DHT22;10261;49.010;12.034;2023-07-13T00:40:35;19.90;99.90
20204;DHT22;10261;49.010;12.034;2023-07-13T00:41:37;20.00;99.90
20204;DHT22;10261;49.010;12.034;2023-07-13T00:44:08;20.10;99.90
20204;DHT22;10261;49.010;12.034;2023-07-13T00:46:51;20.00;99.90
20204;DHT22;10261;49.010;12.034;2023-07-13T00:47:55;19.90;99.90
20204;DHT22;10261;49.010;12.034;2023-07-13T00:49:00;19.90;99.90
20204;DHT22;10261;49.010;12.034;2023-07-13T00:50:06;19.90;99.90
20204;DHT22;10261;49.010;12.034;2023-07-13T00:51:11;19.90;99.90
20204;DHT22;10261;49.010;12.034;2023-07-13T00:52:13;19.90;99.90
20204;DHT22;10261;49.010;12.034;2023-07-13T00:53:16;19.90;99.90
20204;DHT22;10261;49.010;12.034;2023-07-13T00:54:25;19.90;99.90
20204;DHT22;10261;49.010;12.034;2023-07-13T00:55:29;19.90;99.90
20204;DHT22;10261;49.010;12.034;2023-07-13T00:56:31;19.90;99.90
20204;DHT22;10261;49.010;12.034;2023-07-13T00:57:35;19.90;99.90
20204;DHT22;10261;49.010;12.034;2023-07-13T00:58:38;19.90;99.90
20204;DHT22;10261;49.010;12.034;2023-07-13T00:59:45;19.90;99.90
20204;DHT22;10261;49.010;12.034;2023-07-13T01:00:48;19.90;99.90
20204;DHT22;10261;49.010;12.034;2023-07-13T01:01:52;19.90;99.90
20204;DHT22;10261;49.010;12.034;2023-07-13T01:02:54;19.80;99.90
20204;DHT22;10261;49.010;12.034;2023-07-13T01:03:58;19.90;99.90
20204;DHT22;10261;49.010;12.034;2023-07-13T01:05:00;19.90;99.90
20204;DHT22;10261;49.010;12.034;2023-07-13T01:06:03;19.90;99.90
20204;DHT22;10261;49.010;12.034;2023-07-13T01:07:07;19.90;99.90
20204;DHT22;10261;49.010;12.034;2023-07-13T01:08:10;19.90;99.90
20204;DHT22;10261;49.010;12.034;2023-07-13T01:09:12;19.90;99.90
20204;DHT22;10261;49.010;12.034;2023-07-13T01:10:16;19.90;99.90
20204;DHT22;10261;49.010;12.034;2023-07-13T01:11:21;19.90;99.90
20204;DHT22;10261;49.010;12.034;2023-07-13T01:12:24;19.90;99.90
20204;DHT22;10261;49.010;12.034;2023-07-13T01:13:26;19.90;99.90
20204;DHT22;10261;49.010;12.034;2023-07-13T01:14:30;19.80;99.90
20204;DHT22;10261;49.010;12.034;2023-07-13T01:15:37;19.90;99.90
20204;DHT22;10261;49.010;12.034;2023-07-13T01:16:42;19.90;99.90
20204;DHT22;10261;49.010;12.034;2023-07-13T01:17:45;19.90;99.90
20204;DHT22;10261;49.010;12.034;2023-07-13T01:18:47;19.90;99.90
20204;DHT22;10261;49.010;12.034;2023-07-13T01:19:50;19.90;99.90
20204;DHT22;10261;49.010;12.034;2023-07-13T01:20:55;19.90;99.90
20204;DHT22;10261;49.010;12.034;2023-07-13T01:21:57;19.80;99.90
20204;DHT22;10261;49.010;12.034;2023-07-13T01:23:00;19.90;99.90
20204;DHT22;10261;49.010;12.034;2023-07-13T01:24:02;19.90;99.90
20204;DHT22;10261;49.010;12.034;2023-07-13T01:25:06;19.90;99.90
20204;DHT22;10261;49.010;12.034;2023-07-13T01:26:08;20.00;99.90
20204;DHT22;10261;49.010;12.034;2023-07-13T01:27:14;19.90;99.90
20204;DHT22;10261;49.010;12.034;2023-07-13T01:28:16;19.90;99.90
20204;DHT22;10261;49.010;12.034;2023-07-13T01:29:21;19.90;99.90
20204;DHT22;10261;49.010;12.034;2023-07-13T01:30:23;19.90;99.90
20204;DHT22;10261;49.010;12.034;2023-07-13T01:31:26;19.80;99.90
20204;DHT22;10261;49.010;12.034;2023-07-13T01:32:28;19.90;99.90
20204;DHT22;10261;49.010;12.034;2023-07-13T01:33:32;19.90;99.90
20204;DHT22;10261;49.010;12.034;2023-07-13T01:34:35;19.90;99.90
20204;DHT22;10261;49.010;12.034;2023-07-13T01:35:39;19.90;99.90
20204;DHT22;10261;49.010;12.034;2023-07-13T01:36:42;19.90;99.90
20204;DHT22;10261;49.010;12.034;2023-07-13T01:37:45;19.90;99.90
20204;DHT22;10261;49.010;12.034;2023-07-13T01:38:47;19.90;99.90
20204;DHT22;10261;49.010;12.034;2023-07-13T01:39:50;19.90;99.90
20204;DHT22;10261;49.010;12.034;2023-07-13T01:40:52;19.90;99.90
20204;DHT22;10261;49.010;12.034;2023-07-13T01:41:55;20.00;99.90
20204;DHT22;10261;49.010;12.034;2023-07-13T01:42:58;19.90;99.90
20204;DHT22;10261;49.010;12.034;2023-07-13T01:44:01;19.90;99.90
20204;DHT22;10261;49.010;12.034;2023-07-13T01:45:04;19.90;99.90
20204;DHT22;10261;49.010;12.034;2023-07-13T01:46:07;19.90;99.90
20204;DHT22;10261;49.010;12.034;2023-07-13T01:47:24;19.90;99.90
20204;DHT22;10261;49.010;12.034;2023-07-13T01:48:29;19.90;99.90
20204;DHT22;10261;49.010;12.034;2023-07-13T01:49:31;19.90;99.90
20204;DHT22;10261;49.010;12.034;2023-07-13T01:50:35;19.90;99.90
20204;DHT22;10261;49.010;12.034;2023-07-13T01:51:37;19.90;99.90
20204;DHT22;10261;49.010;12.034;2023-07-13T01:52:41;19.90;99.90
20204;DHT22;10261;49.010;12.034;2023-07-13T01:53:43;19.90;99.90
20204;DHT22;10261;49.010;12.034;2023-07-13T01:54:45;19.90;99.90
20204;DHT22;10261;49.010;12.034;2023-07-13T01:55:48;20.00;99.90
20204;DHT22;10261;49.010;12.034;2023-07-13T01:56:50;19.90;99.90
20204;DHT22;10261;49.010;12.034;2023-07-13T01:57:53;19.80;99.90
20204;DHT22;10261;49.010;12.034;2023-07-13T01:58:55;19.90;99.90
20204;DHT22;10261;49.010;12.034;2023-07-13T01:59:58;19.80;99.90
20204;DHT22;10261;49.010;12.034;2023-07-13T02:01:00;19.90;99.90
20204;DHT22;10261;49.010;12.034;2023-07-13T02:02:04;19.90;99.90
20204;DHT22;10261;49.010;12.034;2023-07-13T02:03:06;19.90;99.90
20204;DHT22;10261;49.010;12.034;2023-07-13T02:04:09;19.80;99.90
20204;DHT22;10261;49.010;12.034;2023-07-13T02:05:12;19.90;99.90
20204;DHT22;10261;49.010;12.034;2023-07-13T02:06:15;19.90;99.90
20204;DHT22;10261;49.010;12.034;2023-07-13T02:07:18;19.80;99.90
20204;DHT22;10261;49.010;12.034;2023-07-13T02:08:24;19.90;99.90
20204;DHT22;10261;49.010;12.034;2023-07-13T02:09:27;19.90;99.90
20204;DHT22;10261;49.010;12.034;2023-07-13T02:10:29;19.80;99.90
20204;DHT22;10261;49.010;12.034;2023-07-13T02:11:33;19.90;99.90
20204;DHT22;10261;49.010;12.034;2023-07-13T02:12:35;19.80;99.90
20204;DHT22;10261;49.010;12.034;2023-07-13T02:13:37;19.80;99.90
20204;DHT22;10261;49.010;12.034;2023-07-13T02:14:39;19.80;99.90
20204;DHT22;10261;49.010;12.034;2023-07-13T02:15:41;19.80;99.90
20204;DHT22;10261;49.010;12.034;2023-07-13T02:16:44;19.80;99.90
20204;DHT22;10261;49.010;12.034;2023-07-13T02:17:46;19.80;99.90
20204;DHT22;10261;49.010;12.034;2023-07-13T02:18:49;19.80;99.90
20204;DHT22;10261;49.010;12.034;2023-07-13T02:19:53;19.80;99.90
20204;DHT22;10261;49.010;12.034;2023-07-13T02:20:56;19.80;99.90
20204;DHT22;10261;49.010;12.034;2023-07-13T02:21:58;19.80;99.90
20204;DHT22;10261;49.010;12.034;2023-07-13T02:23:01;19.80;99.90
20204;DHT22;10261;49.010;12.034;2023-07-13T02:24:05;19.80;99.90
20204;DHT22;10261;49.010;12.034;2023-07-13T02:25:08;19.80;99.90
20204;DHT22;10261;49.010;12.034;2023-07-13T02:26:10;19.80;99.90
20204;DHT22;10261;49.010;12.034;2023-07-13T02:27:13;19.80;99.90
20204;DHT22;10261;49.010;12.034;2023-07-13T02:28:15;19.80;99.90
20204;DHT22;10261;49.010;12.034;2023-07-13T02:29:18;19.80;99.90
20204;DHT22;10261;49.010;12.034;2023-07-13T02:30:20;19.70;99.90
20204;DHT22;10261;49.010;12.034;2023-07-13T02:31:26;19.70;99.90
20204;DHT22;10261;49.010;12.034;2023-07-13T02:32:28;19.80;99.90
20204;DHT22;10261;49.010;12.034;2023-07-13T02:33:31;19.80;99.90
20204;DHT22;10261;49.010;12.034;2023-07-13T02:34:33;19.80;99.90
20204;DHT22;10261;49.010;12.034;2023-07-13T02:35:36;19.70;99.90
20204;DHT22;10261;49.010;12.034;2023-07-13T02:36:38;19.80;99.90
20204;DHT22;10261;49.010;12.034;2023-07-13T02:37:41;19.80;99.90
20204;DHT22;10261;49.010;12.034;2023-07-13T02:38:43;19.80;99.90
20204;DHT22;10261;49.010;12.034;2023-07-13T02:39:47;19.80;99.90
20204;DHT22;10261;49.010;12.034;2023-07-13T02:40:49;19.80;99.90
20204;DHT22;10261;49.010;12.034;2023-07-13T02:41:52;19.80;99.90
20204;DHT22;10261;49.010;12.034;2023-07-13T02:42:54;19.80;99.90
20204;DHT22;10261;49.010;12.034;2023-07-13T02:43:57;19.80;99.90
20204;DHT22;10261;49.010;12.034;2023-07-13T02:45:06;19.80;99.90
20204;DHT22;10261;49.010;12.034;2023-07-13T02:46:10;19.80;99.90
20204;DHT22;10261;49.010;12.034;2023-07-13T02:47:13;19.80;99.90
20204;DHT22;10261;49.010;12.034;2023-07-13T02:48:15;19.80;99.90
20204;DHT22;10261;49.010;12.034;2023-07-13T02:49:17;19.80;99.90
20204;DHT22;10261;49.010;12.034;2023-07-13T02:50:19;19.80;99.90
20204;DHT22;10261;49.010;12.034;2023-07-13T02:51:22;19.80;99.90
20204;DHT22;10261;49.010;12.034;2023-07-13T02:52:24;19.70;99.90
20204;DHT22;10261;49.010;12.034;2023-07-13T02:53:27;19.70;99.90
20204;DHT22;10261;49.010;12.034;2023-07-13T02:54:29;19.70;99.90
20204;DHT22;10261;49.010;12.034;2023-07-13T02:55:33;19.80;99.90
20204;DHT22;10261;49.010;12.034;2023-07-13T02:56:36;19.70;99.90
20204;DHT22;10261;49.010;12.034;2023-07-13T02:57:40;19.70;99.90
20204;DHT22;10261;49.010;12.034;2023-07-13T02:58:42;19.70;99.90
20204;DHT22;10261;49.010;12.034;2023-07-13T02:59:45;19.70;99.90
20204;DHT22;10261;49.010;12.034;2023-07-13T03:00:47;19.70;99.90
20204;DHT22;10261;49.010;12.034;2023-07-13T03:01:51;19.80;99.90
20204;DHT22;10261;49.010;12.034;2023-07-13T03:02:54;19.60;99.90
20204;DHT22;10261;49.010;12.034;2023-07-13T03:03:58;19.70;99.90
20204;DHT22;10261;49.010;12.034;2023-07-13T03:05:01;19.70;99.90
20204;DHT22;10261;49.010;12.034;2023-07-13T03:06:04;19.60;99.90
20204;DHT22;10261;49.010;12.034;2023-07-13T03:07:07;19.60;99.90
20204;DHT22;10261;49.010;12.034;2023-07-13T03:08:11;19.60;99.90
20204;DHT22;10261;49.010;12.034;2023-07-13T03:09:13;19.60;99.90
20204;DHT22;10261;49.010;12.034;2023-07-13T03:10:16;19.60;99.90
20204;DHT22;10261;49.010;12.034;2023-07-13T03:11:20;19.60;99.90
20204;DHT22;10261;49.010;12.034;2023-07-13T03:12:23;19.60;99.90
20204;DHT22;10261;49.010;12.034;2023-07-13T03:13:25;19.60;99.90
20204;DHT22;10261;49.010;12.034;2023-07-13T03:14:27;19.60;99.90
20204;DHT22;10261;49.010;12.034;2023-07-13T03:15:30;19.60;99.90
20204;DHT22;10261;49.010;12.034;2023-07-13T03:16:32;19.50;99.90
20204;DHT22;10261;49.010;12.034;2023-07-13T03:17:35;19.60;99.90
20204;DHT22;10261;49.010;12.034;2023-07-13T03:18:37;19.50;99.90
20204;DHT22;10261;49.010;12.034;2023-07-13T03:19:40;19.70;99.90
20204;DHT22;10261;49.010;12.034;2023-07-13T03:20:42;19.60;99.90
20204;DHT22;10261;49.010;12.034;2023-07-13T03:21:45;19.60;99.90
20204;DHT22;10261;49.010;12.034;2023-07-13T03:22:47;19.60;99.90
20204;DHT22;10261;49.010;12.034;2023-07-13T03:23:50;19.50;99.90
20204;DHT22;10261;49.010;12.034;2023-07-13T03:24:52;19.60;99.90
20204;DHT22;10261;49.010;12.034;2023-07-13T03:26:01;19.60;99.90
20204;DHT22;10261;49.010;12.034;2023-07-13T03:27:06;19.60;99.90
20204;DHT22;10261;49.010;12.034;2023-07-13T03:28:09;19.50;99.90
20204;DHT22;10261;49.010;12.034;2023-07-13T03:29:11;19.60;99.90
20204;DHT22;10261;49.010;12.034;2023-07-13T03:30:14;19.60;99.90
20204;DHT22;10261;49.010;12.034;2023-07-13T03:31:18;19.50;99.90
20204;DHT22;10261;49.010;12.034;2023-07-13T03:32:22;19.60;99.90
20204;DHT22;10261;49.010;12.034;2023-07-13T03:33:24;19.10;99.90
20204;DHT22;10261;49.010;12.034;2023-07-13T03:34:27;19.00;99.90
20204;DHT22;10261;49.010;12.034;2023-07-13T03:35:29;18.50;99.90
20204;DHT22;10261;49.010;12.034;2023-07-13T03:36:32;18.20;99.90
20204;DHT22;10261;49.010;12.034;2023-07-13T03:37:35;18.10;99.90
20204;DHT22;10261;49.010;12.034;2023-07-13T03:38:38;17.90;99.90
20204;DHT22;10261;49.010;12.034;2023-07-13T03:39:41;17.80;99.90
20204;DHT22;10261;49.010;12.034;2023-07-13T03:40:43;17.70;99.90
20204;DHT22;10261;49.010;12.034;2023-07-13T03:41:46;17.70;99.90
20204;DHT22;10261;49.010;12.034;2023-07-13T03:42:49;17.70;99.90
20204;DHT22;10261;49.010;12.034;2023-07-13T03:43:53;17.60;99.90
20204;DHT22;10261;49.010;12.034;2023-07-13T03:44:55;17.60;99.90
20204;DHT22;10261;49.010;12.034;2023-07-13T03:45:57;17.60;99.90
20204;DHT22;10261;49.010;12.034;2023-07-13T03:46:59;17.70;99.90
20204;DHT22;10261;49.010;12.034;2023-07-13T03:48:03;17.60;99.90
20204;DHT22;10261;49.010;12.034;2023-07-13T03:49:05;17.60;99.90
20204;DHT22;10261;49.010;12.034;2023-07-13T03:50:08;17.60;99.90
20204;DHT22;10261;49.010;12.034;2023-07-13T03:51:11;17.60;99.90
20204;DHT22;10261;49.010;12.034;2023-07-13T03:52:15;17.60;99.90
20204;DHT22;10261;49.010;12.034;2023-07-13T03:53:17;17.70;99.90
20204;DHT22;10261;49.010;12.034;2023-07-13T03:54:20;17.60;99.90
20204;DHT22;10261;49.010;12.034;2023-07-13T03:55:22;17.60;99.90
20204;DHT22;10261;49.010;12.034;2023-07-13T03:56:25;17.70;99.90
20204;DHT22;10261;49.010;12.034;2023-07-13T03:57:27;17.70;99.90
20204;DHT22;10261;49.010;12.034;2023-07-13T03:58:33;17.70;99.90
20204;DHT22;10261;49.010;12.034;2023-07-13T03:59:35;17.70;99.90
20204;DHT22;10261;49.010;12.034;2023-07-13T04:00:38;17.70;99.90
20204;DHT22;10261;49.010;12.034;2023-07-13T04:01:40;17.70;99.90
20204;DHT22;10261;49.010;12.034;2023-07-13T04:02:43;17.60;99.90
20204;DHT22;10261;49.010;12.034;2023-07-13T04:03:45;17.70;99.90
20204;DHT22;10261;49.010;12.034;2023-07-13T04:04:49;17.70;99.90
20204;DHT22;10261;49.010;12.034;2023-07-13T04:05:51;17.70;99.90
20204;DHT22;10261;49.010;12.034;2023-07-13T04:06:54;17.70;99.90
20204;DHT22;10261;49.010;12.034;2023-07-13T04:07:56;17.60;99.90
20204;DHT22;10261;49.010;12.034;2023-07-13T04:09:00;17.70;99.90
20204;DHT22;10261;49.010;12.034;2023-07-13T04:10:03;17.70;99.90
20204;DHT22;10261;49.010;12.034;2023-07-13T04:11:06;17.80;99.90
20204;DHT22;10261;49.010;12.034;2023-07-13T04:12:08;17.80;99.90
20204;DHT22;10261;49.010;12.034;2023-07-13T04:13:11;17.70;99.90
20204;DHT22;10261;49.010;12.034;2023-07-13T04:14:14;17.70;99.90
20204;DHT22;10261;49.010;12.034;2023-07-13T04:15:17;17.70;99.90
20204;DHT22;10261;49.010;12.034;2023-07-13T04:16:20;17.70;99.90
20204;DHT22;10261;49.010;12.034;2023-07-13T04:17:23;17.70;99.90
20204;DHT22;10261;49.010;12.034;2023-07-13T04:18:25;17.70;99.90
20204;DHT22;10261;49.010;12.034;2023-07-13T04:19:28;17.70;99.90
20204;DHT22;10261;49.010;12.034;2023-07-13T04:20:30;17.80;99.90
20204;DHT22;10261;49.010;12.034;2023-07-13T04:21:32;17.70;99.90
20204;DHT22;10261;49.010;12.034;2023-07-13T04:22:35;17.80;99.90
20204;DHT22;10261;49.010;12.034;2023-07-13T04:23:37;17.80;99.90
20204;DHT22;10261;49.010;12.034;2023-07-13T04:24:40;17.80;99.90
20204;DHT22;10261;49.010;12.034;2023-07-13T04:25:43;17.80;99.90
20204;DHT22;10261;49.010;12.034;2023-07-13T04:26:47;17.80;99.90
20204;DHT22;10261;49.010;12.034;2023-07-13T04:27:49;17.90;99.90
20204;DHT22;10261;49.010;12.034;2023-07-13T04:28:52;17.90;99.90
20204;DHT22;10261;49.010;12.034;2023-07-13T04:29:55;17.90;99.90
20204;DHT22;10261;49.010;12.034;2023-07-13T04:30:58;17.90;99.90
20204;DHT22;10261;49.010;12.034;2023-07-13T04:32:00;17.90;99.90
20204;DHT22;10261;49.010;12.034;2023-07-13T04:33:03;17.90;99.90
20204;DHT22;10261;49.010;12.034;2023-07-13T04:34:06;17.90;99.90
20204;DHT22;10261;49.010;12.034;2023-07-13T04:35:09;18.00;99.90
20204;DHT22;10261;49.010;12.034;2023-07-13T04:36:11;18.00;99.90
20204;DHT22;10261;49.010;12.034;2023-07-13T04:37:14;18.00;99.90
20204;DHT22;10261;49.010;12.034;2023-07-13T04:38:16;18.00;99.90
20204;DHT22;10261;49.010;12.034;2023-07-13T04:39:19;18.10;99.90
20204;DHT22;10261;49.010;12.034;2023-07-13T04:40:22;18.10;99.90
20204;DHT22;10261;49.010;12.034;2023-07-13T04:41:25;18.10;99.90
20204;DHT22;10261;49.010;12.034;2023-07-13T04:42:27;18.10;99.90
20204;DHT22;10261;49.010;12.034;2023-07-13T04:43:29;18.10;99.90
20204;DHT22;10261;49.010;12.034;2023-07-13T04:44:32;18.20;99.90
20204;DHT22;10261;49.010;12.034;2023-07-13T04:45:36;18.20;99.90
20204;DHT22;10261;49.010;12.034;2023-07-13T04:46:39;18.20;99.90
20204;DHT22;10261;49.010;12.034;2023-07-13T04:47:41;18.10;99.90
20204;DHT22;10261;49.010;12.034;2023-07-13T04:48:44;18.10;99.90
20204;DHT22;10261;49.010;12.034;2023-07-13T04:49:46;18.20;99.90
20204;DHT22;10261;49.010;12.034;2023-07-13T04:50:54;18.20;99.90
20204;DHT22;10261;49.010;12.034;2023-07-13T04:51:56;18.20;99.90
20204;DHT22;10261;49.010;12.034;2023-07-13T04:52:59;18.20;99.90
20204;DHT22;10261;49.010;12.034;2023-07-13T04:54:01;18.10;99.90
20204;DHT22;10261;49.010;12.034;2023-07-13T04:55:05;18.10;99.90
20204;DHT22;10261;49.010;12.034;2023-07-13T04:56:07;18.10;99.90
20204;DHT22;10261;49.010;12.034;2023-07-13T04:57:10;18.10;99.90
20204;DHT22;10261;49.010;12.034;2023-07-13T04:58:13;18.10;99.90
20204;DHT22;10261;49.010;12.034;2023-07-13T04:59:16;18.10;99.90
20204;DHT22;10261;49.010;12.034;2023-07-13T05:00:18;18.10;99.90
20204;DHT22;10261;49.010;12.034;2023-07-13T05:01:22;18.10;99.90
20204;DHT22;10261;49.010;12.034;2023-07-13T05:02:24;18.10;99.90
20204;DHT22;10261;49.010;12.034;2023-07-13T05:03:28;18.20;99.90
20204;DHT22;10261;49.010;12.034;2023-07-13T05:04:31;18.20;99.90
20204;DHT22;10261;49.010;12.034;2023-07-13T05:05:34;18.20;99.90
20204;DHT22;10261;49.010;12.034;2023-07-13T05:06:36;18.10;99.90
20204;DHT22;10261;49.010;12.034;2023-07-13T05:07:39;18.10;99.90
20204;DHT22;10261;49.010;12.034;2023-07-13T05:08:41;18.10;99.90
20204;DHT22;10261;49.010;12.034;2023-07-13T05:09:44;18.20;99.90
20204;DHT22;10261;49.010;12.034;2023-07-13T05:10:45;18.20;99.90
20204;DHT22;10261;49.010;12.034;2023-07-13T05:11:48;18.10;99.90
20204;DHT22;10261;49.010;12.034;2023-07-13T05:12:50;18.10;99.90
20204;DHT22;10261;49.010;12.034;2023-07-13T05:13:53;18.10;99.90
20204;DHT22;10261;49.010;12.034;2023-07-13T05:14:55;18.10;99.90
20204;DHT22;10261;49.010;12.034;2023-07-13T05:16:00;18.10;99.90
20204;DHT22;10261;49.010;12.034;2023-07-13T05:17:04;18.10;99.90
20204;DHT22;10261;49.010;12.034;2023-07-13T05:18:07;18.10;99.90
20204;DHT22;10261;49.010;12.034;2023-07-13T05:19:09;18.10;99.90
20204;DHT22;10261;49.010;12.034;2023-07-13T05:20:12;18.20;99.90
20204;DHT22;10261;49.010;12.034;2023-07-13T05:21:14;18.10;99.90
20204;DHT22;10261;49.010;12.034;2023-07-13T05:22:17;18.20;99.90
20204;DHT22;10261;49.010;12.034;2023-07-13T05:23:19;18.10;99.90
20204;DHT22;10261;49.010;12.034;2023-07-13T05:24:22;18.20;99.90
20204;DHT22;10261;49.010;12.034;2023-07-13T05:25:26;18.20;99.90
20204;DHT22;10261;49.010;12.034;2023-07-13T05:26:29;18.20;99.90
20204;DHT22;10261;49.010;12.034;2023-07-13T05:27:31;18.30;99.90
20204;DHT22;10261;49.010;12.034;2023-07-13T05:28:33;18.30;99.90
20204;DHT22;10261;49.010;12.034;2023-07-13T05:29:36;18.30;99.90
20204;DHT22;10261;49.010;12.034;2023-07-13T05:30:38;18.30;99.90
20204;DHT22;10261;49.010;12.034;2023-07-13T05:31:41;18.30;99.90
20204;DHT22;10261;49.010;12.034;2023-07-13T05:32:44;18.30;99.90
20204;DHT22;10261;49.010;12.034;2023-07-13T05:33:47;18.40;99.90
20204;DHT22;10261;49.010;12.034;2023-07-13T05:34:49;18.40;99.90
20204;DHT22;10261;49.010;12.034;2023-07-13T05:35:52;18.40;99.90
20204;DHT22;10261;49.010;12.034;2023-07-13T05:36:54;18.40;99.90
20204;DHT22;10261;49.010;12.034;2023-07-13T05:37:57;18.50;99.90
20204;DHT22;10261;49.010;12.034;2023-07-13T05:38:59;17.30;99.90
20204;DHT22;10261;49.010;12.034;2023-07-13T05:40:02;18.50;99.90
20204;DHT22;10261;49.010;12.034;2023-07-13T05:41:04;18.50;99.90
20204;DHT22;10261;49.010;12.034;2023-07-13T05:42:07;18.50;99.90
20204;DHT22;10261;49.010;12.034;2023-07-13T05:43:09;18.70;99.90
20204;DHT22;10261;49.010;12.034;2023-07-13T05:44:12;18.50;99.90
20204;DHT22;10261;49.010;12.034;2023-07-13T05:45:14;18.50;99.90
20204;DHT22;10261;49.010;12.034;2023-07-13T05:46:17;18.60;99.90
20204;DHT22;10261;49.010;12.034;2023-07-13T05:47:19;18.50;99.90
20204;DHT22;10261;49.010;12.034;2023-07-13T05:48:24;18.60;99.90
20204;DHT22;10261;49.010;12.034;2023-07-13T05:49:25;18.60;99.90
20204;DHT22;10261;49.010;12.034;2023-07-13T05:50:28;18.70;99.90
20204;DHT22;10261;49.010;12.034;2023-07-13T05:51:30;18.70;99.90
20204;DHT22;10261;49.010;12.034;2023-07-13T05:52:33;18.60;99.90
20204;DHT22;10261;49.010;12.034;2023-07-13T05:53:35;18.60;99.90
20204;DHT22;10261;49.010;12.034;2023-07-13T05:54:38;18.60;99.90
20204;DHT22;10261;49.010;12.034;2023-07-13T05:55:41;18.60;99.90
20204;DHT22;10261;49.010;12.034;2023-07-13T05:56:44;18.60;99.90
20204;DHT22;10261;49.010;12.034;2023-07-13T05:57:46;18.70;99.90
20204;DHT22;10261;49.010;12.034;2023-07-13T05:58:49;18.70;99.90
20204;DHT22;10261;49.010;12.034;2023-07-13T05:59:51;18.80;99.90
20204;DHT22;10261;49.010;12.034;2023-07-13T06:01:00;18.80;99.90
20204;DHT22;10261;49.010;12.034;2023-07-13T06:02:03;19.00;99.90
20204;DHT22;10261;49.010;12.034;2023-07-13T06:03:06;19.10;99.90
20204;DHT22;10261;49.010;12.034;2023-07-13T06:04:10;19.00;99.90
20204;DHT22;10261;49.010;12.034;2023-07-13T06:05:13;18.70;99.90
20204;DHT22;10261;49.010;12.034;2023-07-13T06:06:15;18.70;99.90
20204;DHT22;10261;49.010;12.034;2023-07-13T06:07:18;18.90;99.90
20204;DHT22;10261;49.010;12.034;2023-07-13T06:08:20;18.80;99.90
20204;DHT22;10261;49.010;12.034;2023-07-13T06:09:23;18.70;99.90
20204;DHT22;10261;49.010;12.034;2023-07-13T06:10:25;18.60;99.90
20204;DHT22;10261;49.010;12.034;2023-07-13T06:11:28;18.70;99.90
20204;DHT22;10261;49.010;12.034;2023-07-13T06:12:31;18.60;99.90
20204;DHT22;10261;49.010;12.034;2023-07-13T06:13:34;18.70;99.90
20204;DHT22;10261;49.010;12.034;2023-07-13T06:14:36;18.80;99.90
20204;DHT22;10261;49.010;12.034;2023-07-13T06:15:39;18.70;99.90
20204;DHT22;10261;49.010;12.034;2023-07-13T06:16:41;18.70;99.90
20204;DHT22;10261;49.010;12.034;2023-07-13T06:17:44;19.00;99.90
20204;DHT22;10261;49.010;12.034;2023-07-13T06:18:47;19.10;99.90
20204;DHT22;10261;49.010;12.034;2023-07-13T06:19:51;19.10;99.90
20204;DHT22;10261;49.010;12.034;2023-07-13T06:20:53;19.30;99.90
20204;DHT22;10261;49.010;12.034;2023-07-13T06:21:55;19.30;99.90
20204;DHT22;10261;49.010;12.034;2023-07-13T06:22:58;19.30;99.90
20204;DHT22;10261;49.010;12.034;2023-07-13T06:24:00;19.10;99.90
20204;DHT22;10261;49.010;12.034;2023-07-13T06:25:04;19.00;99.90
20204;DHT22;10261;49.010;12.034;2023-07-13T06:26:07;19.00;99.90
20204;DHT22;10261;49.010;12.034;2023-07-13T06:27:10;18.90;99.90
20204;DHT22;10261;49.010;12.034;2023-07-13T06:28:12;18.90;99.90
20204;DHT22;10261;49.010;12.034;2023-07-13T06:29:15;19.00;99.90
20204;DHT22;10261;49.010;12.034;2023-07-13T06:30:16;19.00;99.90
20204;DHT22;10261;49.010;12.034;2023-07-13T06:31:19;19.10;99.90
20204;DHT22;10261;49.010;12.034;2023-07-13T06:32:21;19.20;99.90
20204;DHT22;10261;49.010;12.034;2023-07-13T06:33:24;19.10;99.90
20204;DHT22;10261;49.010;12.034;2023-07-13T06:34:26;19.20;99.90